Airport ICAO


20:19 UTC

24°C

Clear skies


An affordable passengers' Moving Map for your aircraft. Made for the iPad and the iPhone
More information here

LFPV Velizy


Villacoublay FRANCE   VFR CAVOK


METAR LFPV 162000Z AUTO 34005KT CAVOK 24/11 Q1014 0h19min

TAF LFPV 162000Z 1621/1721 34005KT CAVOK 0h19min





NOTAMS

OPEN